Time;durP1;ratioP1;P1;durP2;ratioP2;P2;SDS_P1;SDS_P2;PMS_P1;PMS_P2;Temp;Humidity;BMP_temperature;BMP_pressure;BME280_temperature;BME280_humidity;BME280_pressure;Samples;Min_cycle;Max_cycle;Signal;HPM_P1;HPM_P2
2023/03/29 00:01:40;;;;;;;1.43;1.20;;;0.30;99.90;0.10;101108.00;;;;4987955;28;93885;-66
2023/03/29 00:04:08;;;;;;;4.07;2.00;;;0.40;99.90;0.00;101105.00;;;;4973159;28;93147;-65
2023/03/29 00:06:34;;;;;;;2.17;1.63;;;0.30;99.90;0.10;101101.00;;;;4992419;28;93098;-65
2023/03/29 00:09:04;;;;;;;4.10;2.20;;;0.50;99.90;0.10;101103.00;;;;4989590;28;123384;-65
2023/03/29 00:11:30;;;;;;;3.87;2.03;;;0.50;99.90;0.10;101111.00;;;;4991548;28;92893;-65
2023/03/29 00:13:55;;;;;;;3.00;1.67;;;0.50;99.90;0.20;101080.00;;;;4988469;28;108153;-65
2023/03/29 00:16:21;;;;;;;1.93;1.50;;;0.50;99.90;0.20;101087.00;;;;4989991;28;123492;-65
2023/03/29 00:18:47;;;;;;;5.80;1.63;;;0.50;99.90;0.20;101083.00;;;;4990922;28;123369;-65
2023/03/29 00:21:13;;;;;;;7.03;1.93;;;0.40;99.90;0.20;101082.00;;;;4991151;28;110492;-66
2023/03/29 00:23:39;;;;;;;4.70;2.30;;;0.60;99.90;0.30;101075.00;;;;4989853;28;107349;-65
2023/03/29 00:26:06;;;;;;;2.00;1.60;;;0.60;99.90;0.30;101071.00;;;;4988279;28;122449;-65
2023/03/29 00:28:31;;;;;;;4.60;2.07;;;0.60;99.90;0.30;101068.00;;;;4971656;28;94397;-65
2023/03/29 00:31:07;;;;;;;2.20;2.00;;;0.60;99.90;0.30;101070.00;;;;4991628;28;110078;-65
2023/03/29 00:33:33;;;;;;;1.60;1.50;;;0.60;99.90;0.30;101071.00;;;;4992036;28;92834;-65
2023/03/29 00:35:58;;;;;;;3.90;2.63;;;0.50;99.90;0.30;101070.00;;;;4988246;28;101582;-65
2023/03/29 00:38:24;;;;;;;6.07;2.43;;;0.70;99.90;0.30;101070.00;;;;4989919;28;121760;-65
2023/03/29 00:40:50;;;;;;;6.13;2.33;;;0.60;99.90;0.30;101074.00;;;;4981693;28;110221;-65
2023/03/29 00:43:15;;;;;;;4.80;1.67;;;0.70;99.90;0.30;101071.00;;;;4971600;28;92059;-65
2023/03/29 00:45:41;;;;;;;2.10;1.53;;;0.70;99.90;0.40;101082.00;;;;4963398;28;93759;-66
2023/03/29 00:48:11;;;;;;;3.03;2.33;;;0.70;99.90;0.40;101061.00;;;;4970038;28;123568;-65
2023/03/29 00:50:49;;;;;;;3.37;1.73;;;0.70;99.90;0.40;101066.00;;;;4953438;28;103861;-65
2023/03/29 00:53:37;;;;;;;3.07;1.50;;;0.80;99.90;0.50;101055.00;;;;4971262;28;93023;-65
2023/03/29 00:56:14;;;;;;;1.77;1.40;;;0.80;99.90;0.50;101055.00;;;;4968793;28;92772;-65
2023/03/29 00:58:50;;;;;;;2.10;1.93;;;0.80;99.90;0.60;101051.00;;;;4970076;28;94676;-65
2023/03/29 01:02:04;;;;;;;2.10;1.70;;;1.40;99.90;0.60;101061.00;;;;4971942;28;93282;-66
2023/03/29 01:04:46;;;;;;;5.60;2.43;;;0.90;99.90;0.60;101038.00;;;;4854341;28;93036;-65
2023/03/29 01:07:40;;;;;;;2.40;1.67;;;0.90;99.90;0.60;101040.00;;;;4967289;28;96718;-65
2023/03/29 01:10:16;;;;;;;3.77;1.63;;;1.00;99.90;0.60;101036.00;;;;4951038;28;92808;-64
2023/03/29 01:13:00;;;;;;;6.77;2.70;;;0.90;99.90;0.60;101033.00;;;;4956024;28;102939;-64
2023/03/29 01:15:27;;;;;;;2.67;2.07;;;1.00;99.90;0.60;101032.00;;;;4956168;28;92907;-63
2023/03/29 01:17:54;;;;;;;4.60;2.17;;;0.90;99.90;0.50;101026.00;;;;4968972;28;94633;-67
2023/03/29 01:20:49;;;;;;;14.83;2.13;;;0.80;99.90;0.50;101021.00;;;;4955885;28;94014;-66
2023/03/29 01:24:07;;;;;;;4.33;2.20;;;0.90;99.90;0.40;101011.00;;;;4969158;28;92895;-63
2023/03/29 01:27:21;;;;;;;2.03;1.87;;;0.80;99.90;0.40;100999.00;;;;4970655;28;100896;-64
2023/03/29 01:29:56;;;;;;;6.37;2.53;;;0.80;99.90;0.40;101000.00;;;;4971206;28;93826;-64
2023/03/29 01:32:40;;;;;;;2.93;2.63;;;1.60;99.90;0.40;100995.00;;;;4968912;28;93022;-64
2023/03/29 01:35:15;;;;;;;4.10;2.50;;;0.80;99.90;0.40;100987.00;;;;4967919;28;93088;-65
2023/03/29 01:37:51;;;;;;;2.33;1.80;;;0.70;99.90;0.30;100985.00;;;;4973513;28;92534;-64
2023/03/29 01:40:17;;;;;;;3.30;1.73;;;0.70;99.90;0.30;100980.00;;;;4951104;28;93849;-64
2023/03/29 01:43:08;;;;;;;2.43;2.10;;;0.60;99.90;0.30;100971.00;;;;4970109;28;122435;-64
2023/03/29 01:46:00;;;;;;;2.57;1.73;;;0.60;99.90;0.30;100973.00;;;;4952478;28;103443;-64
2023/03/29 01:48:30;;;;;;;2.73;1.60;;;0.60;99.90;0.30;100974.00;;;;4970410;28;92798;-64
2023/03/29 01:51:13;;;;;;;2.13;1.67;;;0.50;99.90;0.20;100979.00;;;;4966332;28;116608;-64
2023/03/29 01:53:56;;;;;;;2.93;1.83;;;0.50;99.90;0.30;100970.00;;;;4954512;28;92809;-64
2023/03/29 01:56:27;;;;;;;1.50;1.40;;;0.60;99.90;0.30;100968.00;;;;4953739;28;99918;-64
2023/03/29 01:58:58;;;;;;;3.83;2.00;;;0.60;99.90;0.30;100971.00;;;;4953769;28;93567;-64
2023/03/29 02:01:30;;;;;;;1.40;1.30;;;0.50;99.90;0.20;100972.00;;;;4951952;28;111369;-64
2023/03/29 02:04:02;;;;;;;8.80;2.80;;;0.60;99.90;0.20;100966.00;;;;4954829;28;93680;-63
2023/03/29 02:06:31;;;;;;;2.37;1.40;;;0.60;99.90;0.20;100954.00;;;;4950738;28;92875;-64
2023/03/29 02:08:57;;;;;;;7.50;1.80;;;0.40;99.90;0.20;100960.00;;;;4969435;28;92966;-64
2023/03/29 02:11:26;;;;;;;1.93;1.33;;;0.50;99.90;0.20;100950.00;;;;4969497;28;95221;-63
2023/03/29 02:13:52;;;;;;;3.97;2.30;;;0.50;99.90;0.20;100952.00;;;;4952075;28;94739;-64
2023/03/29 02:16:21;;;;;;;3.27;1.97;;;0.50;99.90;0.10;100942.00;;;;4964849;28;111473;-64
2023/03/29 02:18:49;;;;;;;2.17;1.43;;;0.60;99.90;0.20;100953.00;;;;4967269;28;109326;-64
2023/03/29 02:21:33;;;;;;;3.80;2.33;;;0.40;99.90;0.10;100955.00;;;;4958255;28;116385;-64
2023/03/29 02:24:02;;;;;;;1.93;1.43;;;0.40;99.90;0.10;100943.00;;;;4940190;28;104222;-64
2023/03/29 02:26:28;;;;;;;2.07;1.83;;;0.60;99.90;0.10;100942.00;;;;4967605;28;100444;-64
2023/03/29 02:28:54;;;;;;;2.30;1.83;;;0.40;99.90;0.10;100940.00;;;;4968991;28;92505;-64
2023/03/29 02:32:22;;;;;;;3.10;1.83;;;0.40;99.90;0.00;100931.00;;;;4970287;28;94164;-64
2023/03/29 02:35:15;;;;;;;4.27;2.20;;;0.50;99.90;-0.10;100921.00;;;;4925340;28;93582;-63
2023/03/29 02:37:45;;;;;;;2.83;1.83;;;0.30;99.90;0.00;100926.00;;;;4969306;28;93784;-65
2023/03/29 02:40:13;;;;;;;3.77;2.40;;;0.30;99.90;0.00;100924.00;;;;4970075;28;93188;-64
2023/03/29 02:42:40;;;;;;;2.43;2.07;;;0.80;99.90;0.00;100913.00;;;;4973860;28;94078;-64
2023/03/29 02:45:08;;;;;;;1.73;1.43;;;0.30;99.90;0.00;100911.00;;;;4950291;28;93092;-64
2023/03/29 02:47:45;;;;;;;5.17;1.70;;;0.40;99.90;0.00;100913.00;;;;4971171;28;93273;-65
2023/03/29 02:50:11;;;;;;;3.90;1.60;;;0.30;99.90;0.00;100916.00;;;;4949528;28;92894;-65
2023/03/29 02:52:51;;;;;;;7.43;1.77;;;0.30;99.90;0.10;100904.00;;;;4954318;28;122454;-64
2023/03/29 02:55:20;;;;;;;1.73;1.50;;;0.40;99.90;0.00;100899.00;;;;4970362;28;93691;-64
2023/03/29 02:57:46;;;;;;;3.37;1.90;;;0.40;99.90;0.10;100890.00;;;;4950818;28;98764;-64
2023/03/29 03:00:13;;;;;;;3.53;1.90;;;0.40;99.90;0.10;100889.00;;;;4967944;28;109925;-64
2023/03/29 03:02:39;;;;;;;6.70;1.63;;;0.40;99.90;0.10;100882.00;;;;4970458;28;94763;-64
2023/03/29 03:05:05;;;;;;;2.17;1.70;;;0.40;99.90;0.10;100875.00;;;;4967755;28;122545;-65
2023/03/29 03:07:32;;;;;;;2.50;1.60;;;0.40;99.90;0.10;100869.00;;;;4967829;28;92980;-65
2023/03/29 03:09:58;;;;;;;3.67;1.50;;;0.40;99.90;0.20;100864.00;;;;4968871;28;92986;-65
2023/03/29 03:12:24;;;;;;;7.63;1.93;;;0.40;99.90;0.20;100863.00;;;;4967819;28;122244;-65
2023/03/29 03:14:50;;;;;;;7.40;2.30;;;0.60;99.90;0.20;100846.00;;;;4969852;28;107320;-65
2023/03/29 03:17:17;;;;;;;2.60;1.80;;;0.50;99.90;0.20;100862.00;;;;4970030;28;110710;-65
2023/03/29 03:19:43;;;;;;;5.07;1.87;;;0.50;99.90;0.20;100864.00;;;;4971835;28;92194;-65
2023/03/29 03:22:08;;;;;;;2.50;1.67;;;0.50;99.90;0.30;100851.00;;;;4971211;28;119917;-65
2023/03/29 03:24:34;;;;;;;2.10;1.33;;;0.50;99.90;0.30;100844.00;;;;4971349;28;123319;-65
2023/03/29 03:27:00;;;;;;;3.20;1.77;;;0.50;99.90;0.30;100855.00;;;;4971938;28;110084;-65
2023/03/29 03:29:27;;;;;;;1.70;1.60;;;0.60;99.90;0.30;100859.00;;;;4970937;28;108640;-65
2023/03/29 03:31:53;;;;;;;3.70;1.20;;;1.70;99.90;0.30;100852.00;;;;4972614;28;94110;-65
2023/03/29 03:34:19;;;;;;;4.97;1.83;;;2.10;99.90;0.40;100851.00;;;;4971887;28;93625;-65
2023/03/29 03:37:03;;;;;;;2.50;1.70;;;0.60;99.90;0.40;100849.00;;;;4972417;28;92780;-65
2023/03/29 03:39:29;;;;;;;4.00;1.97;;;0.60;99.90;0.40;100857.00;;;;4971767;28;108577;-64
2023/03/29 03:41:54;;;;;;;4.60;1.37;;;0.80;99.90;0.40;100856.00;;;;4986223;28;93301;-64
2023/03/29 03:44:20;;;;;;;1.50;1.40;;;0.70;99.90;0.40;100844.00;;;;4990472;28;122074;-64
2023/03/29 03:46:46;;;;;;;2.70;1.70;;;0.70;99.90;0.50;100850.00;;;;4992875;28;93384;-64
2023/03/29 03:49:11;;;;;;;2.13;1.50;;;0.70;99.90;0.40;100844.00;;;;4987988;28;93900;-64
2023/03/29 03:51:37;;;;;;;2.40;1.50;;;0.80;99.90;0.40;100844.00;;;;4988306;28;122838;-64
2023/03/29 03:54:03;;;;;;;2.37;1.27;;;0.70;99.90;0.40;100848.00;;;;4989811;28;115079;-64
2023/03/29 03:56:28;;;;;;;1.27;1.10;;;0.80;99.90;0.40;100835.00;;;;4990238;28;102220;-64
2023/03/29 03:58:55;;;;;;;1.87;1.10;;;0.70;99.90;0.40;100838.00;;;;4990204;28;107308;-64
2023/03/29 04:01:21;;;;;;;1.33;1.00;;;0.80;99.90;0.30;100839.00;;;;4990646;28;94193;-64
2023/03/29 04:03:47;;;;;;;1.40;1.30;;;0.70;99.90;0.30;100830.00;;;;4989617;28;121248;-64
2023/03/29 04:06:12;;;;;;;2.73;1.13;;;0.60;99.90;0.20;100837.00;;;;4990188;28;111779;-64
2023/03/29 04:08:41;;;;;;;2.47;1.53;;;0.70;99.90;0.20;100834.00;;;;4990174;28;108141;-64
2023/03/29 04:11:06;;;;;;;2.63;1.63;;;0.60;99.90;0.20;100844.00;;;;4989377;28;94007;-64
2023/03/29 04:13:32;;;;;;;7.30;1.87;;;0.50;99.90;0.10;100844.00;;;;4989524;28;114347;-65
2023/03/29 04:15:58;;;;;;;3.33;1.47;;;0.60;99.90;0.10;100833.00;;;;4991090;28;93869;-64
2023/03/29 04:18:23;;;;;;;1.60;1.50;;;0.80;99.90;0.10;100829.00;;;;4987340;28;93086;-64
2023/03/29 04:20:49;;;;;;;3.53;1.97;;;0.40;99.90;0.10;100830.00;;;;4988615;28;122751;-64
2023/03/29 04:23:15;;;;;;;1.93;1.33;;;0.40;99.90;0.10;100837.00;;;;4989975;28;92856;-64
2023/03/29 04:25:40;;;;;;;2.10;1.70;;;0.40;99.90;0.00;100838.00;;;;4989356;28;92918;-65
2023/03/29 04:28:06;;;;;;;1.17;1.03;;;0.40;99.90;0.00;100818.00;;;;4988906;28;108372;-65
2023/03/29 04:30:32;;;;;;;1.73;0.90;;;0.30;99.90;0.00;100826.00;;;;4989445;27;123737;-65
2023/03/29 04:32:58;;;;;;;1.33;1.20;;;0.40;99.90;0.00;100829.00;;;;4988622;27;113945;-65
2023/03/29 04:35:24;;;;;;;3.63;1.30;;;0.30;99.90;0.00;100814.00;;;;4988194;28;109302;-65
2023/03/29 04:37:51;;;;;;;0.50;0.50;;;0.30;99.90;-0.10;100822.00;;;;4987551;28;106101;-64
2023/03/29 04:40:18;;;;;;;2.80;1.40;;;0.20;99.90;-0.10;100815.00;;;;4989520;28;94719;-64
2023/03/29 04:42:46;;;;;;;1.60;1.43;;;0.20;99.90;-0.20;100808.00;;;;4992097;27;94670;-65
2023/03/29 04:45:13;;;;;;;2.90;1.13;;;0.30;99.90;-0.20;100804.00;;;;4981056;28;93159;-65
2023/03/29 04:47:44;;;;;;;4.03;2.17;;;0.20;99.90;-0.20;100808.00;;;;4986983;28;93254;-65
2023/03/29 04:50:10;;;;;;;4.23;2.10;;;0.20;99.90;-0.20;100808.00;;;;4984282;28;93617;-64
2023/03/29 04:52:36;;;;;;;3.77;2.00;;;0.10;99.90;-0.30;100806.00;;;;4986925;28;93002;-64
2023/03/29 04:55:04;;;;;;;3.00;1.70;;;0.10;99.90;-0.30;100805.00;;;;4987549;28;93129;-65
2023/03/29 04:57:30;;;;;;;1.43;1.30;;;0.10;99.90;-0.20;100804.00;;;;4986867;28;92315;-65
2023/03/29 04:59:56;;;;;;;5.43;2.27;;;0.20;99.90;-0.30;100805.00;;;;4986122;28;123889;-65
2023/03/29 05:02:22;;;;;;;1.80;1.50;;;0.10;99.90;-0.30;100805.00;;;;4988733;28;93358;-65
2023/03/29 05:04:48;;;;;;;2.30;1.73;;;0.20;99.90;-0.20;100808.00;;;;4988357;28;110845;-65
2023/03/29 05:07:14;;;;;;;2.00;1.77;;;0.10;99.90;-0.20;100800.00;;;;4987503;28;93362;-64
2023/03/29 05:09:41;;;;;;;1.47;1.07;;;0.20;99.90;-0.20;100794.00;;;;4985393;28;93243;-65
2023/03/29 05:12:07;;;;;;;3.03;1.30;;;0.10;99.90;-0.30;100783.00;;;;4989140;28;94184;-65
2023/03/29 05:14:33;;;;;;;2.10;1.90;;;0.10;99.90;-0.30;100780.00;;;;4988534;28;109024;-64
2023/03/29 05:16:58;;;;;;;2.90;1.57;;;0.00;99.90;-0.30;100784.00;;;;4986455;28;108553;-64
2023/03/29 05:19:24;;;;;;;2.33;1.70;;;0.20;99.90;-0.30;100793.00;;;;4987625;28;122290;-64
2023/03/29 05:21:51;;;;;;;2.87;1.90;;;-0.70;99.90;-0.30;100781.00;;;;4985833;28;93172;-65
2023/03/29 05:24:18;;;;;;;4.40;1.63;;;0.00;99.90;-0.30;100777.00;;;;4989303;28;93002;-65
2023/03/29 05:26:46;;;;;;;4.63;2.07;;;-0.30;99.90;-0.30;100785.00;;;;4989041;28;93114;-65
2023/03/29 05:29:33;;;;;;;3.90;1.57;;;0.00;99.90;-0.30;100789.00;;;;4987633;28;94335;-65
2023/03/29 05:31:58;;;;;;;1.80;1.33;;;0.10;99.90;-0.20;100785.00;;;;4987240;28;93158;-65
2023/03/29 05:34:25;;;;;;;3.37;1.47;;;0.10;99.90;-0.10;100790.00;;;;4986746;28;108089;-65
2023/03/29 05:36:51;;;;;;;1.47;1.10;;;0.10;99.90;0.00;100790.00;;;;4988129;28;92965;-65
2023/03/29 05:39:16;;;;;;;1.97;1.80;;;0.30;99.90;0.00;100774.00;;;;4990650;28;93939;-64
2023/03/29 05:41:42;;;;;;;2.70;1.43;;;0.40;99.90;0.20;100786.00;;;;4987075;27;123376;-65
2023/03/29 05:44:08;;;;;;;3.37;1.77;;;0.40;99.90;0.30;100779.00;;;;4988020;27;108929;-64
2023/03/29 05:46:34;;;;;;;3.47;1.93;;;1.40;99.90;0.40;100778.00;;;;4987335;28;92365;-65
2023/03/29 05:49:00;;;;;;;3.57;2.37;;;0.60;99.90;0.50;100775.00;;;;4987981;28;93533;-65
2023/03/29 05:51:26;;;;;;;2.70;1.83;;;0.70;99.90;0.70;100785.00;;;;4987636;28;93132;-65
2023/03/29 05:53:52;;;;;;;2.23;1.77;;;0.90;99.90;0.80;100772.00;;;;4984706;28;110747;-65
2023/03/29 05:56:18;;;;;;;1.30;1.20;;;1.00;99.90;0.90;100769.00;;;;4988225;28;93983;-65
2023/03/29 05:58:48;;;;;;;1.77;1.47;;;1.20;99.90;1.10;100762.00;;;;4986002;28;94095;-65
2023/03/29 06:01:16;;;;;;;3.13;2.60;;;1.30;99.90;1.20;100772.00;;;;4984871;28;93469;-65
2023/03/29 06:03:42;;;;;;;7.93;2.60;;;1.40;99.90;1.30;100777.00;;;;4986385;28;92948;-64
2023/03/29 06:06:09;;;;;;;2.03;1.77;;;1.50;99.90;1.50;100780.00;;;;4985072;28;108711;-65
2023/03/29 06:08:35;;;;;;;5.30;2.17;;;1.70;99.90;1.60;100782.00;;;;4984923;28;93880;-65
2023/03/29 06:11:04;;;;;;;2.20;1.40;;;1.90;99.90;1.70;100771.00;;;;4987741;28;93509;-65
2023/03/29 06:13:32;;;;;;;8.03;2.07;;;1.90;99.90;1.80;100776.00;;;;4987040;28;93013;-65
2023/03/29 06:15:58;;;;;;;1.57;1.47;;;2.10;99.90;1.90;100772.00;;;;4989701;28;92840;-64
2023/03/29 06:18:24;;;;;;;2.67;1.70;;;2.10;99.90;2.10;100797.00;;;;4988686;28;94127;-64
2023/03/29 06:20:51;;;;;;;4.10;1.97;;;2.30;99.90;2.20;100784.00;;;;4987320;28;121516;-64
2023/03/29 06:23:22;;;;;;;2.07;1.70;;;2.30;99.90;2.30;100783.00;;;;4987926;28;93316;-64
2023/03/29 06:25:50;;;;;;;3.40;1.97;;;2.40;99.90;2.30;100784.00;;;;4985692;28;94112;-64
2023/03/29 06:28:17;;;;;;;2.87;1.60;;;2.00;99.90;2.40;100771.00;;;;4985598;28;94041;-64
2023/03/29 06:30:44;;;;;;;3.40;2.20;;;2.70;99.90;2.50;100776.00;;;;4979859;28;93017;-64
2023/03/29 06:33:11;;;;;;;1.80;1.40;;;2.70;99.90;2.70;100776.00;;;;4988632;28;93025;-64
2023/03/29 06:35:44;;;;;;;2.80;1.33;;;2.80;99.90;2.80;100778.00;;;;4988238;28;93312;-64
2023/03/29 06:38:10;;;;;;;1.47;1.27;;;2.90;99.90;2.90;100776.00;;;;4987705;28;92850;-64
2023/03/29 06:40:39;;;;;;;3.73;1.50;;;3.00;99.90;3.00;100781.00;;;;4985865;28;118440;-64
2023/03/29 06:43:05;;;;;;;0.87;0.87;;;3.10;99.90;3.10;100777.00;;;;4984415;28;93951;-64
2023/03/29 06:45:34;;;;;;;2.20;1.77;;;3.30;99.90;3.20;100769.00;;;;4987453;28;92783;-64
2023/03/29 06:48:02;;;;;;;2.53;2.00;;;3.40;99.90;3.40;100769.00;;;;4987665;28;94264;-65
2023/03/29 06:50:28;;;;;;;1.93;1.23;;;3.40;99.90;3.50;100773.00;;;;4987187;28;93308;-65
2023/03/29 06:52:54;;;;;;;1.17;1.07;;;3.70;99.90;3.60;100774.00;;;;4987530;27;92932;-65
2023/03/29 06:55:21;;;;;;;1.60;1.50;;;3.90;99.90;3.80;100779.00;;;;4989597;27;93269;-65
2023/03/29 06:57:47;;;;;;;2.63;2.07;;;3.90;99.90;3.90;100772.00;;;;4993976;28;93132;-65
2023/03/29 07:00:18;;;;;;;3.27;1.97;;;4.00;99.90;4.00;100769.00;;;;4990919;28;93595;-65
2023/03/29 07:02:48;;;;;;;6.20;1.20;;;4.10;99.90;4.10;100778.00;;;;4976997;28;92871;-65
2023/03/29 07:05:14;;;;;;;4.83;1.30;;;4.20;99.90;4.20;100769.00;;;;4990211;28;93454;-65
2023/03/29 07:07:56;;;;;;;2.67;1.90;;;4.30;99.90;4.30;100767.00;;;;4990312;28;94934;-65
2023/03/29 07:10:27;;;;;;;1.30;1.10;;;4.30;99.90;4.50;100764.00;;;;4989923;28;94512;-65
2023/03/29 07:12:53;;;;;;;1.50;1.17;;;4.60;99.90;4.60;100768.00;;;;4991771;28;92956;-65
2023/03/29 07:15:20;;;;;;;2.50;0.80;;;4.70;99.90;4.70;100760.00;;;;4989979;28;98093;-65
2023/03/29 07:17:47;;;;;;;5.53;1.10;;;4.90;99.90;4.90;100768.00;;;;4991462;28;93390;-64
2023/03/29 07:20:14;;;;;;;1.73;1.20;;;4.90;99.90;5.00;100762.00;;;;4988559;28;93785;-65
2023/03/29 07:22:42;;;;;;;1.17;1.07;;;5.20;99.90;5.10;100774.00;;;;4982925;28;92939;-65
2023/03/29 07:25:09;;;;;;;1.77;1.60;;;5.20;99.90;5.30;100778.00;;;;4991672;28;92469;-65
2023/03/29 07:27:36;;;;;;;1.90;1.20;;;5.30;99.90;5.40;100774.00;;;;4992020;28;94182;-66
2023/03/29 07:30:05;;;;;;;2.57;1.03;;;5.30;99.90;5.60;100773.00;;;;4991432;28;92942;-66
2023/03/29 07:32:31;;;;;;;3.70;1.57;;;5.60;99.90;5.70;100773.00;;;;4981595;28;93875;-64
2023/03/29 07:34:57;;;;;;;5.40;2.10;;;5.80;99.90;5.90;100781.00;;;;4988605;28;93084;-65
2023/03/29 07:37:23;;;;;;;1.80;1.17;;;5.90;99.90;6.10;100793.00;;;;4987591;28;122652;-65
2023/03/29 07:39:50;;;;;;;2.73;1.53;;;6.80;99.90;6.20;100782.00;;;;4991910;28;93504;-65
2023/03/29 07:42:15;;;;;;;1.93;1.00;;;6.30;99.90;6.30;100782.00;;;;4989158;28;92898;-64
2023/03/29 07:44:41;;;;;;;2.40;1.53;;;6.40;99.90;6.50;100793.00;;;;4988461;28;107367;-65
2023/03/29 07:47:07;;;;;;;3.90;1.30;;;7.30;99.90;6.70;100797.00;;;;4989818;28;122580;-65
2023/03/29 07:49:32;;;;;;;3.27;1.30;;;7.60;99.90;6.80;100793.00;;;;4991830;28;122528;-65
2023/03/29 07:51:58;;;;;;;2.80;1.00;;;6.90;99.90;6.90;100789.00;;;;4988624;28;110878;-66
2023/03/29 07:54:24;;;;;;;3.33;1.47;;;6.90;98.40;7.00;100791.00;;;;4992276;28;92992;-65
2023/03/29 07:56:50;;;;;;;3.40;2.33;;;7.10;98.60;7.00;100786.00;;;;4990376;28;94543;-65
2023/03/29 07:59:15;;;;;;;1.33;1.23;;;7.20;98.10;7.10;100783.00;;;;4989489;28;123871;-65
2023/03/29 08:01:41;;;;;;;1.33;1.03;;;7.20;97.90;7.10;100783.00;;;;4988519;28;107017;-65
2023/03/29 08:04:07;;;;;;;1.57;1.20;;;7.20;97.30;7.20;100775.00;;;;4989619;28;93038;-65
2023/03/29 08:06:33;;;;;;;1.97;1.33;;;7.20;97.30;7.30;100779.00;;;;4986259;27;122777;-65
2023/03/29 08:08:59;;;;;;;1.03;0.97;;;7.40;96.30;7.40;100785.00;;;;4982192;28;122541;-65
2023/03/29 08:11:25;;;;;;;3.07;1.83;;;7.80;96.10;7.50;100776.00;;;;4991219;28;108497;-65
2023/03/29 08:13:53;;;;;;;1.33;1.17;;;7.60;95.80;7.60;100794.00;;;;4988899;28;108542;-65
2023/03/29 08:16:19;;;;;;;3.57;1.27;;;7.70;95.60;7.60;100790.00;;;;4986467;28;93234;-66
2023/03/29 08:18:45;;;;;;;4.17;0.90;;;7.80;95.10;7.60;100782.00;;;;4991189;28;93070;-65
2023/03/29 08:21:13;;;;;;;1.60;1.23;;;7.90;94.70;7.50;100792.00;;;;4990602;28;94031;-65
2023/03/29 08:23:39;;;;;;;2.13;1.13;;;8.00;94.50;7.40;100786.00;;;;4991661;28;93513;-65
2023/03/29 08:26:07;;;;;;;6.47;1.70;;;7.70;95.00;7.40;100784.00;;;;4990301;28;94026;-65
2023/03/29 08:28:33;;;;;;;2.53;1.60;;;7.60;95.00;7.40;100784.00;;;;4987699;28;93617;-65
2023/03/29 08:30:59;;;;;;;1.63;1.13;;;7.60;95.10;7.40;100784.00;;;;4987916;28;92884;-65
2023/03/29 08:33:24;;;;;;;2.03;1.03;;;7.70;95.90;7.40;100769.00;;;;4990135;28;101036;-65
2023/03/29 08:35:50;;;;;;;2.20;1.57;;;7.50;95.30;7.40;100780.00;;;;4987274;28;94263;-64
2023/03/29 08:38:16;;;;;;;1.03;0.77;;;7.50;95.60;7.40;100776.00;;;;4988173;28;93878;-64
2023/03/29 08:40:42;;;;;;;1.83;0.93;;;7.50;95.50;7.40;100790.00;;;;4989960;28;92932;-64
2023/03/29 08:43:42;;;;;;;5.87;1.97;;;7.50;95.40;7.30;100774.00;;;;4971382;28;93030;-64
2023/03/29 08:46:42;;;;;;;2.67;1.70;;;7.50;95.20;7.20;100784.00;;;;4983560;28;94080;-64
2023/03/29 08:49:09;;;;;;;2.73;1.50;;;7.50;95.00;7.30;100783.00;;;;4968102;28;115487;-64
2023/03/29 08:51:41;;;;;;;2.10;1.70;;;7.50;95.20;7.30;100785.00;;;;4988916;27;110117;-65
2023/03/29 08:54:32;;;;;;;0.70;0.60;;;7.40;95.30;7.40;100788.00;;;;4990289;28;102344;-64
2023/03/29 08:57:44;;;;;;;1.43;0.93;;;7.40;95.60;7.30;100777.00;;;;4989864;28;115882;-64
2023/03/29 09:00:21;;;;;;;1.33;0.97;;;7.50;95.20;7.30;100778.00;;;;4958978;28;93128;-65
2023/03/29 09:02:50;;;;;;;2.93;1.47;;;7.50;95.00;7.30;100772.00;;;;4966693;28;92955;-64
2023/03/29 09:05:43;;;;;;;3.20;1.00;;;7.70;95.00;7.40;100778.00;;;;4986667;28;92341;-65
2023/03/29 09:08:17;;;;;;;1.53;1.43;;;7.50;95.00;7.40;100770.00;;;;4971243;28;94009;-65
2023/03/29 09:10:57;;;;;;;1.83;1.17;;;7.40;95.20;7.40;100777.00;;;;4968336;28;93221;-64
2023/03/29 09:14:05;;;;;;;1.17;0.97;;;7.60;94.80;7.40;100774.00;;;;4986937;28;111124;-64
2023/03/29 09:16:48;;;;;;;2.93;1.53;;;7.50;94.80;7.50;100768.00;;;;4991145;28;92944;-64
2023/03/29 09:19:39;;;;;;;1.50;1.07;;;7.80;94.90;7.60;100769.00;;;;4981956;28;94239;-64
2023/03/29 09:22:38;;;;;;;2.03;1.87;;;7.70;94.80;7.70;100779.00;;;;4988009;28;92907;-65
2023/03/29 09:25:31;;;;;;;3.97;1.50;;;7.70;94.70;7.80;100774.00;;;;4987720;28;102815;-65
2023/03/29 09:28:33;;;;;;;2.20;1.10;;;7.80;94.60;7.80;100777.00;;;;4973279;28;92868;-64
2023/03/29 09:31:21;;;;;;;2.13;1.30;;;8.00;94.60;7.80;100773.00;;;;4987907;28;92989;-64
2023/03/29 09:34:12;;;;;;;2.60;1.40;;;6.90;93.80;7.80;100771.00;;;;4971950;28;92298;-64
2023/03/29 09:36:54;;;;;;;2.00;1.47;;;7.90;94.30;7.80;100768.00;;;;4987285;28;92980;-65
2023/03/29 09:39:21;;;;;;;3.70;1.43;;;7.80;94.10;7.70;100758.00;;;;4972746;28;93056;-63
2023/03/29 09:42:07;;;;;;;3.03;1.13;;;7.80;94.20;7.80;100760.00;;;;4986162;28;112303;-63
2023/03/29 09:44:46;;;;;;;1.90;1.37;;;7.80;94.50;7.90;100764.00;;;;4973397;28;92942;-63
2023/03/29 09:47:35;;;;;;;1.27;1.13;;;7.90;94.90;8.00;100762.00;;;;4972093;28;92976;-63
2023/03/29 09:50:26;;;;;;;1.37;1.20;;;8.10;95.20;8.10;100767.00;;;;4971621;28;93130;-65
2023/03/29 09:52:52;;;;;;;1.20;1.10;;;8.20;94.80;8.20;100763.00;;;;4969322;28;92909;-63
2023/03/29 09:55:24;;;;;;;2.23;1.23;;;8.20;95.00;8.40;100756.00;;;;4987009;28;122570;-63
2023/03/29 09:57:50;;;;;;;4.00;1.47;;;8.40;95.20;8.50;100765.00;;;;4980289;28;92969;-63
2023/03/29 10:00:17;;;;;;;3.20;1.67;;;8.50;94.60;8.60;100759.00;;;;4991650;28;92477;-63
2023/03/29 10:02:51;;;;;;;2.67;1.57;;;8.60;94.70;8.60;100761.00;;;;4966197;28;113951;-64
2023/03/29 10:05:17;;;;;;;1.63;0.93;;;8.70;94.50;8.70;100757.00;;;;4985246;28;92940;-64
2023/03/29 10:07:53;;;;;;;3.23;1.30;;;8.70;94.50;8.70;100749.00;;;;4988136;28;94894;-64
2023/03/29 10:10:33;;;;;;;1.47;1.00;;;8.70;94.00;8.70;100747.00;;;;4986093;28;92956;-64
2023/03/29 10:13:04;;;;;;;1.63;1.07;;;8.70;94.30;8.80;100755.00;;;;4965977;28;119675;-64
2023/03/29 10:15:30;;;;;;;1.53;1.33;;;8.80;94.80;8.90;100740.00;;;;4989101;28;92800;-64
2023/03/29 10:18:05;;;;;;;5.00;1.60;;;8.90;94.70;9.00;100746.00;;;;4988245;28;93018;-63
2023/03/29 10:20:35;;;;;;;2.50;1.47;;;9.20;94.50;9.00;100739.00;;;;4991339;28;92851;-64
2023/03/29 10:23:00;;;;;;;2.03;1.43;;;8.80;93.80;9.00;100743.00;;;;4988485;27;93591;-63
2023/03/29 10:25:30;;;;;;;2.97;0.97;;;9.00;93.80;9.00;100733.00;;;;4987046;28;122460;-64
2023/03/29 10:28:21;;;;;;;2.33;1.50;;;9.00;93.90;9.00;100732.00;;;;4987152;28;92872;-64
2023/03/29 10:30:55;;;;;;;2.37;1.67;;;9.10;94.00;9.10;100740.00;;;;4987919;28;92781;-65
2023/03/29 10:33:23;;;;;;;2.13;1.63;;;9.10;94.20;9.20;100736.00;;;;4969388;28;94665;-63
2023/03/29 10:35:50;;;;;;;4.57;1.53;;;9.10;94.30;9.20;100737.00;;;;4986260;28;112442;-64
2023/03/29 10:38:19;;;;;;;1.63;1.53;;;9.20;94.30;9.30;100738.00;;;;4988870;28;93334;-64
2023/03/29 10:40:48;;;;;;;1.40;0.90;;;9.30;94.00;9.30;100726.00;;;;4988073;27;92883;-63
2023/03/29 10:43:34;;;;;;;1.73;1.10;;;9.30;93.60;9.30;100728.00;;;;4976355;28;93226;-63
2023/03/29 10:46:20;;;;;;;2.43;1.53;;;9.40;93.80;9.30;100725.00;;;;4967727;28;92981;-63
2023/03/29 10:48:59;;;;;;;1.57;1.43;;;9.40;93.40;9.30;100733.00;;;;4988254;28;92989;-63
2023/03/29 10:51:31;;;;;;;1.87;1.57;;;9.40;93.20;9.20;100732.00;;;;4988289;28;92609;-64
2023/03/29 10:54:01;;;;;;;1.90;1.00;;;9.30;93.20;9.10;100721.00;;;;4984322;28;93106;-63
2023/03/29 10:56:41;;;;;;;3.80;1.70;;;9.20;93.30;9.00;100722.00;;;;4986133;28;93162;-64
2023/03/29 10:59:34;;;;;;;2.87;1.10;;;9.20;93.60;9.00;100717.00;;;;4969892;28;93863;-64
2023/03/29 11:02:49;;;;;;;1.53;0.80;;;9.10;93.80;8.90;100714.00;;;;4978670;28;93100;-64
2023/03/29 11:05:38;;;;;;;8.53;1.73;;;9.00;94.10;9.00;100710.00;;;;4988801;28;93268;-64
2023/03/29 11:08:51;;;;;;;2.40;1.40;;;9.00;94.50;9.00;100708.00;;;;4964193;28;114749;-64
2023/03/29 11:11:52;;;;;;;3.57;1.37;;;9.10;94.30;9.00;100698.00;;;;4933823;28;93168;-64
2023/03/29 11:14:40;;;;;;;2.20;1.30;;;9.00;94.50;9.00;100706.00;;;;4938397;28;101972;-64
2023/03/29 11:17:49;;;;;;;2.00;1.43;;;9.20;94.50;8.90;100692.00;;;;4976229;28;93317;-64
2023/03/29 11:20:29;;;;;;;4.00;1.60;;;9.00;94.70;9.00;100692.00;;;;4948321;28;103668;-63
2023/03/29 11:23:12;;;;;;;1.83;1.20;;;9.10;95.00;9.00;100681.00;;;;4984182;28;92891;-65